Appomattox, Virginia
Current Conditions -  °F | °C
As of 6:35 AM on Friday 31 Oct 2014 (Local Time) from K0V4 Reporting Station
Overcast Overcast  
Wind Chill: 39°   Ceiling: 4500
Heat Index: 39°   Visibility: 10mi
Dew Point: 38°   Wind: 0mph
Humidity: 98%   Direction: NA
Pressure: 29.99"   Gusts: NA
Location:  37.36°N, 78.83°W
Report Text: K0V4 311035Z AUTO 00000KT 10SM BKN045 OVC060 04/03 A2999 RMK AO1 T00370034
Loading
Personal Weather Stations






























Interactive Weather Map
Tropical Storm Tracking
New forecast layout! Learn more

10-Day Weather Forecast

Advertisements
Track Severe Weather on mobile